Список аэропортов
Фактическая погода:

15 августа, 23:30
Температура: +17°C (+16.6*)
Ветер: юго-западный 4 м/с
Давление: *758 мм
Без существ. явл.
Время (МСК)Темп. СВетерВлажностьДавлениеОблачностьОсадки
21:00+21ЮЗ, 3 м/с95%1011 гПас прояснениямисл. дождь
22:00+20ЮЗ, 3 м/с96%1011 гПаоблачно
23:00+20ЮЗ, 3 м/с97%1011 гПаоблачно
16 августа
00:00+20ЮЗ, 3 м/с96%1011 гПас прояснениями
01:00+19ЮЗ, 3 м/с95%1012 гПаоблачно
02:00+18ЮЗ, 3 м/с96%1012 гПаоблачно
03:00+18ЮЗ, 3 м/с97%1012 гПаоблачно
04:00+18ЮЗ, 3 м/с97%1013 гПаоблачно
05:00+17ЮЗ, 2 м/с97%1013 гПаоблачно
06:00+17ЮЗ, 2 м/с98%1014 гПаоблачно
07:00+17ЮЗ, 3 м/с96%1014 гПаоблачно
08:00+18З, 3 м/с91%1014 гПамалооблачно
09:00+19З, 4 м/с83%1015 гПаоблачно
10:00+20З, 4 м/с71%1015 гПаоблачно
11:00+21З, 4 м/с65%1015 гПаоблачно
12:00+22З, 4 м/с61%1016 гПаоблачно
13:00+22З, 4 м/с57%1016 гПаоблачно
14:00+22СЗ, 4 м/с56%1016 гПаоблачно
15:00+22СЗ, 5 м/с58%1017 гПаоблачно
16:00+22СЗ, 5 м/с59%1017 гПаоблачно
17:00+21СЗ, 5 м/с62%1017 гПаоблачно
18:00+20С, 4 м/с65%1018 гПамалооблачно
19:00+19С, 4 м/с67%1018 гПаясно
20:00+18С, 3 м/с69%1019 гПаясно
21:00+17СЗ, 2 м/с76%1020 гПамалооблачно
22:00+15С, 1 м/с85%1020 гПаясно
23:00+14СЗ, 1 м/с91%1021 гПаясно
17 августа
00:00+13СЗ, 2 м/с95%1021 гПамалооблачно
01:00+12СЗ, 2 м/с97%1022 гПаясно
02:00+12СЗ, 2 м/с96%1022 гПаясно
03:00+11СЗ, 2 м/с97%1022 гПаясно
04:00+11СЗ, 2 м/с97%1023 гПаясно
05:00+10СЗ, 2 м/с98%1023 гПаясно
06:00+10СЗ, 2 м/с97%1024 гПамалооблачно
07:00+12С, 2 м/с91%1024 гПаясно
08:00+14С, 2 м/с80%1024 гПаясно
09:00+18С, 2 м/с62%1024 гПаясно
10:00+21СВ, 3 м/с49%1024 гПаясно
11:00+22СВ, 4 м/с43%1024 гПаясно
12:00+22СВ, 4 м/с41%1024 гПамалооблачно
13:00+23СВ, 3 м/с39%1024 гПаясно
14:00+23С, 3 м/с38%1024 гПас прояснениями
15:00+23С, 4 м/с38%1023 гПаоблачно
16:00+23С, 4 м/с37%1023 гПаоблачно
17:00+23С, 4 м/с37%1023 гПаоблачно
18:00+22С, 4 м/с39%1023 гПас прояснениями
19:00+21СВ, 4 м/с41%1023 гПаясно
20:00+19СВ, 3 м/с47%1023 гПаясно
21:00+17СВ, 2 м/с54%1024 гПаясно